sensor_id;sensor_type;location;lat;lon;timestamp;temperature;humidity
17152;DHT22;8691;50.828;4.700;2023-08-06T00:01:57;15.20;99.90
17152;DHT22;8691;50.828;4.700;2023-08-06T00:04:24;15.20;99.90
17152;DHT22;8691;50.828;4.700;2023-08-06T00:06:51;15.20;99.90
17152;DHT22;8691;50.828;4.700;2023-08-06T00:09:18;15.20;99.90
17152;DHT22;8691;50.828;4.700;2023-08-06T00:11:45;15.20;99.90
17152;DHT22;8691;50.828;4.700;2023-08-06T00:14:12;15.30;99.90
17152;DHT22;8691;50.828;4.700;2023-08-06T00:16:39;15.30;99.90
17152;DHT22;8691;50.828;4.700;2023-08-06T00:19:06;15.30;99.90
17152;DHT22;8691;50.828;4.700;2023-08-06T00:21:33;15.30;99.90
17152;DHT22;8691;50.828;4.700;2023-08-06T00:24:00;15.30;99.90
17152;DHT22;8691;50.828;4.700;2023-08-06T00:26:27;15.30;99.90
17152;DHT22;8691;50.828;4.700;2023-08-06T00:28:53;15.30;99.90
17152;DHT22;8691;50.828;4.700;2023-08-06T00:31:20;15.30;99.90
17152;DHT22;8691;50.828;4.700;2023-08-06T00:33:47;15.30;99.90
17152;DHT22;8691;50.828;4.700;2023-08-06T00:36:14;15.40;99.90
17152;DHT22;8691;50.828;4.700;2023-08-06T00:38:40;15.30;99.90
17152;DHT22;8691;50.828;4.700;2023-08-06T00:41:07;15.30;99.90
17152;DHT22;8691;50.828;4.700;2023-08-06T00:43:34;15.40;99.90
17152;DHT22;8691;50.828;4.700;2023-08-06T00:46:01;15.40;99.90
17152;DHT22;8691;50.828;4.700;2023-08-06T00:48:28;15.40;99.90
17152;DHT22;8691;50.828;4.700;2023-08-06T00:50:55;15.40;99.90
17152;DHT22;8691;50.828;4.700;2023-08-06T00:53:21;15.40;99.90
17152;DHT22;8691;50.828;4.700;2023-08-06T00:55:48;15.40;99.90
17152;DHT22;8691;50.828;4.700;2023-08-06T00:58:15;15.40;99.90
17152;DHT22;8691;50.828;4.700;2023-08-06T01:00:43;15.40;99.90
17152;DHT22;8691;50.828;4.700;2023-08-06T01:03:10;15.40;99.90
17152;DHT22;8691;50.828;4.700;2023-08-06T01:05:37;15.50;99.90
17152;DHT22;8691;50.828;4.700;2023-08-06T01:08:24;15.50;99.90
17152;DHT22;8691;50.828;4.700;2023-08-06T01:16:17;15.50;99.90
17152;DHT22;8691;50.828;4.700;2023-08-06T01:18:43;15.50;99.90
17152;DHT22;8691;50.828;4.700;2023-08-06T01:21:10;15.50;99.90
17152;DHT22;8691;50.828;4.700;2023-08-06T01:23:37;15.60;99.90
17152;DHT22;8691;50.828;4.700;2023-08-06T01:28:56;15.60;99.90
17152;DHT22;8691;50.828;4.700;2023-08-06T01:31:21;15.60;99.90
17152;DHT22;8691;50.828;4.700;2023-08-06T01:33:46;15.60;99.90
17152;DHT22;8691;50.828;4.700;2023-08-06T01:36:15;15.60;99.90
17152;DHT22;8691;50.828;4.700;2023-08-06T01:38:41;15.60;99.90
17152;DHT22;8691;50.828;4.700;2023-08-06T01:41:07;15.60;99.90
17152;DHT22;8691;50.828;4.700;2023-08-06T01:43:34;15.60;99.90
17152;DHT22;8691;50.828;4.700;2023-08-06T01:46:01;15.60;99.90
17152;DHT22;8691;50.828;4.700;2023-08-06T01:48:28;15.60;99.90
17152;DHT22;8691;50.828;4.700;2023-08-06T01:50:55;15.60;99.90
17152;DHT22;8691;50.828;4.700;2023-08-06T01:53:22;15.60;99.90
17152;DHT22;8691;50.828;4.700;2023-08-06T01:55:49;15.60;99.90
17152;DHT22;8691;50.828;4.700;2023-08-06T01:58:16;15.60;99.90
17152;DHT22;8691;50.828;4.700;2023-08-06T02:00:43;15.60;99.90
17152;DHT22;8691;50.828;4.700;2023-08-06T02:03:09;15.50;99.90
17152;DHT22;8691;50.828;4.700;2023-08-06T02:05:37;15.50;99.90
17152;DHT22;8691;50.828;4.700;2023-08-06T02:08:04;15.50;99.90
17152;DHT22;8691;50.828;4.700;2023-08-06T02:10:31;15.50;99.90
17152;DHT22;8691;50.828;4.700;2023-08-06T02:12:57;15.60;99.90
17152;DHT22;8691;50.828;4.700;2023-08-06T02:15:24;15.50;99.90
17152;DHT22;8691;50.828;4.700;2023-08-06T02:17:51;15.50;99.90
17152;DHT22;8691;50.828;4.700;2023-08-06T02:20:19;15.50;99.90
17152;DHT22;8691;50.828;4.700;2023-08-06T02:22:46;15.60;99.90
17152;DHT22;8691;50.828;4.700;2023-08-06T02:25:13;15.60;99.90
17152;DHT22;8691;50.828;4.700;2023-08-06T02:27:40;15.50;99.90
17152;DHT22;8691;50.828;4.700;2023-08-06T02:30:06;15.60;99.90
17152;DHT22;8691;50.828;4.700;2023-08-06T02:32:33;15.50;99.90
17152;DHT22;8691;50.828;4.700;2023-08-06T02:35:01;15.60;99.90
17152;DHT22;8691;50.828;4.700;2023-08-06T02:37:28;15.60;99.90
17152;DHT22;8691;50.828;4.700;2023-08-06T02:39:55;15.60;99.90
17152;DHT22;8691;50.828;4.700;2023-08-06T02:42:22;15.50;99.90
17152;DHT22;8691;50.828;4.700;2023-08-06T02:44:49;15.60;99.90
17152;DHT22;8691;50.828;4.700;2023-08-06T02:47:16;15.50;99.90
17152;DHT22;8691;50.828;4.700;2023-08-06T02:49:43;15.50;99.90
17152;DHT22;8691;50.828;4.700;2023-08-06T02:52:10;15.50;99.90
17152;DHT22;8691;50.828;4.700;2023-08-06T02:54:37;15.50;99.90
17152;DHT22;8691;50.828;4.700;2023-08-06T02:57:04;15.50;99.90
17152;DHT22;8691;50.828;4.700;2023-08-06T02:59:31;15.50;99.90
17152;DHT22;8691;50.828;4.700;2023-08-06T03:01:57;15.50;99.90
17152;DHT22;8691;50.828;4.700;2023-08-06T03:04:24;15.50;99.90
17152;DHT22;8691;50.828;4.700;2023-08-06T03:06:51;15.50;99.90
17152;DHT22;8691;50.828;4.700;2023-08-06T03:09:18;15.40;99.90
17152;DHT22;8691;50.828;4.700;2023-08-06T03:11:45;15.40;99.90
17152;DHT22;8691;50.828;4.700;2023-08-06T03:14:13;15.40;99.90
17152;DHT22;8691;50.828;4.700;2023-08-06T03:16:40;15.40;99.90
17152;DHT22;8691;50.828;4.700;2023-08-06T03:19:06;15.40;99.90
17152;DHT22;8691;50.828;4.700;2023-08-06T03:21:33;15.30;99.90
17152;DHT22;8691;50.828;4.700;2023-08-06T03:24:01;15.20;99.90
17152;DHT22;8691;50.828;4.700;2023-08-06T03:26:28;15.20;99.90
17152;DHT22;8691;50.828;4.700;2023-08-06T03:28:55;15.30;99.90
17152;DHT22;8691;50.828;4.700;2023-08-06T03:31:22;15.30;99.90
17152;DHT22;8691;50.828;4.700;2023-08-06T03:33:48;15.30;99.90
17152;DHT22;8691;50.828;4.700;2023-08-06T03:36:15;15.30;99.90
17152;DHT22;8691;50.828;4.700;2023-08-06T03:38:42;15.30;99.90
17152;DHT22;8691;50.828;4.700;2023-08-06T03:41:10;15.30;99.90
17152;DHT22;8691;50.828;4.700;2023-08-06T03:43:37;15.30;99.90
17152;DHT22;8691;50.828;4.700;2023-08-06T03:46:03;15.30;99.90
17152;DHT22;8691;50.828;4.700;2023-08-06T03:48:30;15.30;99.90
17152;DHT22;8691;50.828;4.700;2023-08-06T03:50:57;15.30;99.90
17152;DHT22;8691;50.828;4.700;2023-08-06T03:53:24;15.30;99.90
17152;DHT22;8691;50.828;4.700;2023-08-06T03:55:51;15.20;99.90
17152;DHT22;8691;50.828;4.700;2023-08-06T03:58:18;15.20;99.90
17152;DHT22;8691;50.828;4.700;2023-08-06T04:00:44;15.20;99.90
17152;DHT22;8691;50.828;4.700;2023-08-06T04:03:11;15.20;99.90
17152;DHT22;8691;50.828;4.700;2023-08-06T04:05:38;15.20;99.90
17152;DHT22;8691;50.828;4.700;2023-08-06T04:08:05;15.20;99.90
17152;DHT22;8691;50.828;4.700;2023-08-06T04:10:32;15.20;99.90
17152;DHT22;8691;50.828;4.700;2023-08-06T04:12:59;15.20;99.90
17152;DHT22;8691;50.828;4.700;2023-08-06T04:15:26;15.30;99.90
17152;DHT22;8691;50.828;4.700;2023-08-06T04:17:53;15.30;99.90
17152;DHT22;8691;50.828;4.700;2023-08-06T04:20:20;15.30;99.90
17152;DHT22;8691;50.828;4.700;2023-08-06T04:22:47;15.30;99.90
17152;DHT22;8691;50.828;4.700;2023-08-06T04:25:14;15.30;99.90
17152;DHT22;8691;50.828;4.700;2023-08-06T04:27:41;15.30;99.90
17152;DHT22;8691;50.828;4.700;2023-08-06T04:30:08;15.40;99.90
17152;DHT22;8691;50.828;4.700;2023-08-06T04:32:34;15.40;99.90
17152;DHT22;8691;50.828;4.700;2023-08-06T04:35:01;15.40;99.90
17152;DHT22;8691;50.828;4.700;2023-08-06T04:37:29;15.40;99.90
17152;DHT22;8691;50.828;4.700;2023-08-06T04:39:55;15.40;99.90
17152;DHT22;8691;50.828;4.700;2023-08-06T04:42:22;15.40;99.90
17152;DHT22;8691;50.828;4.700;2023-08-06T04:44:49;15.40;99.90
17152;DHT22;8691;50.828;4.700;2023-08-06T04:47:16;15.50;99.90
17152;DHT22;8691;50.828;4.700;2023-08-06T04:49:44;15.50;99.90
17152;DHT22;8691;50.828;4.700;2023-08-06T04:52:11;15.50;99.90
17152;DHT22;8691;50.828;4.700;2023-08-06T04:54:39;15.60;99.90
17152;DHT22;8691;50.828;4.700;2023-08-06T04:57:06;15.60;99.90
17152;DHT22;8691;50.828;4.700;2023-08-06T04:59:33;15.50;99.90
17152;DHT22;8691;50.828;4.700;2023-08-06T05:02:00;15.30;99.90
17152;DHT22;8691;50.828;4.700;2023-08-06T05:04:27;15.20;99.90
17152;DHT22;8691;50.828;4.700;2023-08-06T05:06:55;15.10;99.90
17152;DHT22;8691;50.828;4.700;2023-08-06T05:09:22;15.00;99.90
17152;DHT22;8691;50.828;4.700;2023-08-06T05:11:48;14.90;99.90
17152;DHT22;8691;50.828;4.700;2023-08-06T05:14:15;14.80;99.90
17152;DHT22;8691;50.828;4.700;2023-08-06T05:16:43;14.80;99.90
17152;DHT22;8691;50.828;4.700;2023-08-06T05:19:10;14.70;99.90
17152;DHT22;8691;50.828;4.700;2023-08-06T05:21:37;14.70;99.90
17152;DHT22;8691;50.828;4.700;2023-08-06T05:24:04;14.60;99.90
17152;DHT22;8691;50.828;4.700;2023-08-06T05:26:31;14.60;99.90
17152;DHT22;8691;50.828;4.700;2023-08-06T05:28:58;14.60;99.90
17152;DHT22;8691;50.828;4.700;2023-08-06T05:31:25;14.60;99.90
17152;DHT22;8691;50.828;4.700;2023-08-06T05:33:52;14.60;99.90
17152;DHT22;8691;50.828;4.700;2023-08-06T05:36:19;14.40;99.90
17152;DHT22;8691;50.828;4.700;2023-08-06T05:38:46;14.40;99.90
17152;DHT22;8691;50.828;4.700;2023-08-06T05:41:13;14.30;99.90
17152;DHT22;8691;50.828;4.700;2023-08-06T05:43:40;14.30;99.90
17152;DHT22;8691;50.828;4.700;2023-08-06T05:46:07;14.30;99.90
17152;DHT22;8691;50.828;4.700;2023-08-06T05:48:35;14.20;99.90
17152;DHT22;8691;50.828;4.700;2023-08-06T05:51:03;14.30;99.90
17152;DHT22;8691;50.828;4.700;2023-08-06T05:53:29;14.20;99.90
17152;DHT22;8691;50.828;4.700;2023-08-06T05:55:56;14.20;99.90
17152;DHT22;8691;50.828;4.700;2023-08-06T05:58:23;14.30;99.90
17152;DHT22;8691;50.828;4.700;2023-08-06T06:00:50;14.30;99.90
17152;DHT22;8691;50.828;4.700;2023-08-06T06:03:16;14.20;99.90
17152;DHT22;8691;50.828;4.700;2023-08-06T06:05:44;14.30;99.90
17152;DHT22;8691;50.828;4.700;2023-08-06T06:08:10;14.20;99.90
17152;DHT22;8691;50.828;4.700;2023-08-06T06:10:37;14.20;99.90
17152;DHT22;8691;50.828;4.700;2023-08-06T06:13:04;14.20;99.90
17152;DHT22;8691;50.828;4.700;2023-08-06T06:15:32;14.20;99.90
17152;DHT22;8691;50.828;4.700;2023-08-06T06:17:58;14.30;99.90
17152;DHT22;8691;50.828;4.700;2023-08-06T06:20:26;14.20;99.90
17152;DHT22;8691;50.828;4.700;2023-08-06T06:22:52;14.20;99.90
17152;DHT22;8691;50.828;4.700;2023-08-06T06:25:19;14.30;99.90
17152;DHT22;8691;50.828;4.700;2023-08-06T06:27:46;14.30;99.90
17152;DHT22;8691;50.828;4.700;2023-08-06T06:30:14;14.40;99.90
17152;DHT22;8691;50.828;4.700;2023-08-06T06:32:41;14.40;99.90
17152;DHT22;8691;50.828;4.700;2023-08-06T06:35:08;14.40;99.90
17152;DHT22;8691;50.828;4.700;2023-08-06T06:37:35;14.40;99.90
17152;DHT22;8691;50.828;4.700;2023-08-06T06:40:02;14.60;99.90
17152;DHT22;8691;50.828;4.700;2023-08-06T06:42:29;14.60;99.90
17152;DHT22;8691;50.828;4.700;2023-08-06T06:44:56;14.70;99.90
17152;DHT22;8691;50.828;4.700;2023-08-06T06:47:23;14.80;99.90
17152;DHT22;8691;50.828;4.700;2023-08-06T06:49:50;14.80;99.90
17152;DHT22;8691;50.828;4.700;2023-08-06T06:52:17;14.90;99.90
17152;DHT22;8691;50.828;4.700;2023-08-06T06:54:44;14.90;99.90
17152;DHT22;8691;50.828;4.700;2023-08-06T06:57:10;14.90;99.90
17152;DHT22;8691;50.828;4.700;2023-08-06T06:59:37;15.00;99.90
17152;DHT22;8691;50.828;4.700;2023-08-06T07:02:04;15.10;99.90
17152;DHT22;8691;50.828;4.700;2023-08-06T07:04:32;15.20;99.90
17152;DHT22;8691;50.828;4.700;2023-08-06T07:06:59;15.20;99.90
17152;DHT22;8691;50.828;4.700;2023-08-06T07:09:26;15.20;99.90
17152;DHT22;8691;50.828;4.700;2023-08-06T07:11:52;15.30;99.90
17152;DHT22;8691;50.828;4.700;2023-08-06T07:14:19;15.40;99.90
17152;DHT22;8691;50.828;4.700;2023-08-06T07:16:46;15.40;99.90
17152;DHT22;8691;50.828;4.700;2023-08-06T07:19:13;15.40;99.90
17152;DHT22;8691;50.828;4.700;2023-08-06T07:21:40;15.50;99.90
17152;DHT22;8691;50.828;4.700;2023-08-06T07:24:07;15.40;99.90
17152;DHT22;8691;50.828;4.700;2023-08-06T07:26:34;15.50;99.90
17152;DHT22;8691;50.828;4.700;2023-08-06T07:29:01;15.50;99.90
17152;DHT22;8691;50.828;4.700;2023-08-06T07:31:28;15.40;99.90
17152;DHT22;8691;50.828;4.700;2023-08-06T07:33:55;15.40;99.90
17152;DHT22;8691;50.828;4.700;2023-08-06T07:36:21;15.60;99.90
17152;DHT22;8691;50.828;4.700;2023-08-06T07:38:48;15.70;99.90
17152;DHT22;8691;50.828;4.700;2023-08-06T07:41:15;15.80;99.90
17152;DHT22;8691;50.828;4.700;2023-08-06T07:43:42;15.80;99.90
17152;DHT22;8691;50.828;4.700;2023-08-06T07:46:09;15.80;99.90
17152;DHT22;8691;50.828;4.700;2023-08-06T07:48:36;15.90;99.90
17152;DHT22;8691;50.828;4.700;2023-08-06T07:51:02;15.90;99.90
17152;DHT22;8691;50.828;4.700;2023-08-06T07:53:29;16.00;99.90
17152;DHT22;8691;50.828;4.700;2023-08-06T07:55:56;16.00;99.90
17152;DHT22;8691;50.828;4.700;2023-08-06T07:58:24;15.80;99.90
17152;DHT22;8691;50.828;4.700;2023-08-06T08:00:51;15.80;99.90
17152;DHT22;8691;50.828;4.700;2023-08-06T08:03:17;15.60;99.90
17152;DHT22;8691;50.828;4.700;2023-08-06T08:05:44;15.50;99.90
17152;DHT22;8691;50.828;4.700;2023-08-06T08:08:11;15.50;99.90
17152;DHT22;8691;50.828;4.700;2023-08-06T08:10:38;15.50;99.90
17152;DHT22;8691;50.828;4.700;2023-08-06T08:13:05;15.70;99.90
17152;DHT22;8691;50.828;4.700;2023-08-06T08:15:31;16.00;99.90
17152;DHT22;8691;50.828;4.700;2023-08-06T08:17:59;16.30;99.90
17152;DHT22;8691;50.828;4.700;2023-08-06T08:20:26;16.60;99.90
17152;DHT22;8691;50.828;4.700;2023-08-06T08:22:54;16.70;99.90
17152;DHT22;8691;50.828;4.700;2023-08-06T08:25:20;16.60;99.90
17152;DHT22;8691;50.828;4.700;2023-08-06T08:27:47;16.80;99.90
17152;DHT22;8691;50.828;4.700;2023-08-06T08:30:15;16.80;99.90
17152;DHT22;8691;50.828;4.700;2023-08-06T08:32:42;16.80;99.90
17152;DHT22;8691;50.828;4.700;2023-08-06T08:35:10;17.00;99.90
17152;DHT22;8691;50.828;4.700;2023-08-06T08:37:37;17.00;99.90
17152;DHT22;8691;50.828;4.700;2023-08-06T08:40:04;17.30;99.90
17152;DHT22;8691;50.828;4.700;2023-08-06T08:42:31;17.60;99.90
17152;DHT22;8691;50.828;4.700;2023-08-06T08:44:58;17.60;99.90
17152;DHT22;8691;50.828;4.700;2023-08-06T08:47:24;17.40;99.90
17152;DHT22;8691;50.828;4.700;2023-08-06T08:49:54;17.10;99.90
17152;DHT22;8691;50.828;4.700;2023-08-06T08:52:23;16.50;99.90
17152;DHT22;8691;50.828;4.700;2023-08-06T08:54:50;16.40;99.90
17152;DHT22;8691;50.828;4.700;2023-08-06T08:57:17;16.60;99.90
17152;DHT22;8691;50.828;4.700;2023-08-06T08:59:44;17.00;99.90
17152;DHT22;8691;50.828;4.700;2023-08-06T09:02:11;17.40;99.90
17152;DHT22;8691;50.828;4.700;2023-08-06T09:04:38;17.80;99.90
17152;DHT22;8691;50.828;4.700;2023-08-06T09:07:04;17.70;99.90
17152;DHT22;8691;50.828;4.700;2023-08-06T09:09:31;17.80;99.90
17152;DHT22;8691;50.828;4.700;2023-08-06T09:12:01;17.80;99.90
17152;DHT22;8691;50.828;4.700;2023-08-06T09:14:30;18.00;99.90
17152;DHT22;8691;50.828;4.700;2023-08-06T09:16:57;18.00;99.90
17152;DHT22;8691;50.828;4.700;2023-08-06T09:19:23;17.70;99.90
17152;DHT22;8691;50.828;4.700;2023-08-06T09:21:51;17.50;99.90
17152;DHT22;8691;50.828;4.700;2023-08-06T09:24:17;17.30;99.90
17152;DHT22;8691;50.828;4.700;2023-08-06T09:26:44;17.10;99.90
17152;DHT22;8691;50.828;4.700;2023-08-06T09:29:11;17.10;99.90
17152;DHT22;8691;50.828;4.700;2023-08-06T09:31:44;17.10;99.90
17152;DHT22;8691;50.828;4.700;2023-08-06T09:34:11;17.00;99.90
17152;DHT22;8691;50.828;4.700;2023-08-06T09:37:11;16.90;99.90
17152;DHT22;8691;50.828;4.700;2023-08-06T09:39:14;16.80;99.90
17152;DHT22;8691;50.828;4.700;2023-08-06T09:41:41;16.80;99.90
17152;DHT22;8691;50.828;4.700;2023-08-06T09:44:16;16.60;99.90
17152;DHT22;8691;50.828;4.700;2023-08-06T09:46:49;16.40;99.90
17152;DHT22;8691;50.828;4.700;2023-08-06T09:49:20;16.30;99.90
17152;DHT22;8691;50.828;4.700;2023-08-06T09:51:44;16.20;99.90
17152;DHT22;8691;50.828;4.700;2023-08-06T09:54:13;16.20;99.90
17152;DHT22;8691;50.828;4.700;2023-08-06T09:56:40;15.80;99.90
17152;DHT22;8691;50.828;4.700;2023-08-06T09:59:07;15.60;99.90
17152;DHT22;8691;50.828;4.700;2023-08-06T10:01:34;15.50;99.90
17152;DHT22;8691;50.828;4.700;2023-08-06T10:04:01;15.50;99.90
17152;DHT22;8691;50.828;4.700;2023-08-06T10:06:28;15.50;99.90
17152;DHT22;8691;50.828;4.700;2023-08-06T10:08:54;15.60;99.90
17152;DHT22;8691;50.828;4.700;2023-08-06T10:11:21;15.50;99.90
17152;DHT22;8691;50.828;4.700;2023-08-06T10:13:48;15.40;99.90
17152;DHT22;8691;50.828;4.700;2023-08-06T10:16:15;15.30;99.90
17152;DHT22;8691;50.828;4.700;2023-08-06T10:18:42;15.30;99.90
17152;DHT22;8691;50.828;4.700;2023-08-06T10:21:09;15.00;99.90
17152;DHT22;8691;50.828;4.700;2023-08-06T10:23:36;15.00;99.90
17152;DHT22;8691;50.828;4.700;2023-08-06T10:26:03;15.10;99.90
17152;DHT22;8691;50.828;4.700;2023-08-06T10:28:37;15.00;99.90
17152;DHT22;8691;50.828;4.700;2023-08-06T10:31:04;15.10;99.90
17152;DHT22;8691;50.828;4.700;2023-08-06T10:33:46;15.10;99.90
17152;DHT22;8691;50.828;4.700;2023-08-06T10:36:12;15.00;99.90
17152;DHT22;8691;50.828;4.700;2023-08-06T10:38:45;15.00;99.90
17152;DHT22;8691;50.828;4.700;2023-08-06T10:41:15;15.00;99.90
17152;DHT22;8691;50.828;4.700;2023-08-06T10:43:42;15.10;99.90
17152;DHT22;8691;50.828;4.700;2023-08-06T10:46:10;15.00;99.90
17152;DHT22;8691;50.828;4.700;2023-08-06T10:48:39;15.00;99.90
17152;DHT22;8691;50.828;4.700;2023-08-06T10:51:09;15.10;99.90
17152;DHT22;8691;50.828;4.700;2023-08-06T10:53:35;15.10;99.90
17152;DHT22;8691;50.828;4.700;2023-08-06T10:56:11;15.30;99.90
17152;DHT22;8691;50.828;4.700;2023-08-06T10:58:32;15.40;99.90
17152;DHT22;8691;50.828;4.700;2023-08-06T11:00:59;15.50;99.90
17152;DHT22;8691;50.828;4.700;2023-08-06T11:03:28;15.80;99.90
17152;DHT22;8691;50.828;4.700;2023-08-06T11:05:53;16.00;99.90
17152;DHT22;8691;50.828;4.700;2023-08-06T11:08:24;16.20;99.90
17152;DHT22;8691;50.828;4.700;2023-08-06T11:10:50;16.50;99.90
17152;DHT22;8691;50.828;4.700;2023-08-06T11:13:17;16.50;99.90
17152;DHT22;8691;50.828;4.700;2023-08-06T11:15:44;16.50;99.90
17152;DHT22;8691;50.828;4.700;2023-08-06T11:18:10;16.50;99.90
17152;DHT22;8691;50.828;4.700;2023-08-06T11:20:38;16.70;99.90
17152;DHT22;8691;50.828;4.700;2023-08-06T11:23:04;16.60;99.90
17152;DHT22;8691;50.828;4.700;2023-08-06T11:25:31;16.60;99.90
17152;DHT22;8691;50.828;4.700;2023-08-06T11:27:58;16.70;99.90
17152;DHT22;8691;50.828;4.700;2023-08-06T11:30:26;16.80;99.90
17152;DHT22;8691;50.828;4.700;2023-08-06T11:32:52;17.10;99.90
17152;DHT22;8691;50.828;4.700;2023-08-06T11:35:19;17.10;99.90
17152;DHT22;8691;50.828;4.700;2023-08-06T11:37:46;17.40;99.90
17152;DHT22;8691;50.828;4.700;2023-08-06T11:40:14;17.70;99.90
17152;DHT22;8691;50.828;4.700;2023-08-06T11:42:41;17.60;99.90
17152;DHT22;8691;50.828;4.700;2023-08-06T11:45:08;17.60;99.90
17152;DHT22;8691;50.828;4.700;2023-08-06T11:47:37;17.50;99.90
17152;DHT22;8691;50.828;4.700;2023-08-06T11:50:02;17.30;99.90
17152;DHT22;8691;50.828;4.700;2023-08-06T11:52:29;17.30;99.90
17152;DHT22;8691;50.828;4.700;2023-08-06T11:55:04;17.30;99.90
17152;DHT22;8691;50.828;4.700;2023-08-06T11:57:30;17.30;99.90
17152;DHT22;8691;50.828;4.700;2023-08-06T11:59:56;17.20;99.90
17152;DHT22;8691;50.828;4.700;2023-08-06T12:02:23;16.90;99.90
17152;DHT22;8691;50.828;4.700;2023-08-06T12:05:00;16.40;99.90
17152;DHT22;8691;50.828;4.700;2023-08-06T12:07:29;16.10;99.90
17152;DHT22;8691;50.828;4.700;2023-08-06T12:09:53;16.00;99.90
17152;DHT22;8691;50.828;4.700;2023-08-06T12:12:19;16.20;99.90
17152;DHT22;8691;50.828;4.700;2023-08-06T12:14:46;16.60;99.90
17152;DHT22;8691;50.828;4.700;2023-08-06T12:17:13;17.00;99.90
17152;DHT22;8691;50.828;4.700;2023-08-06T12:19:40;17.60;99.90
17152;DHT22;8691;50.828;4.700;2023-08-06T12:22:07;17.90;99.90
17152;DHT22;8691;50.828;4.700;2023-08-06T12:24:34;18.00;99.90
17152;DHT22;8691;50.828;4.700;2023-08-06T12:27:01;18.20;99.90
17152;DHT22;8691;50.828;4.700;2023-08-06T12:29:27;18.00;99.90
17152;DHT22;8691;50.828;4.700;2023-08-06T12:31:54;17.80;99.90
17152;DHT22;8691;50.828;4.700;2023-08-06T12:34:21;17.70;99.90
17152;DHT22;8691;50.828;4.700;2023-08-06T12:36:48;17.40;99.90
17152;DHT22;8691;50.828;4.700;2023-08-06T12:39:15;17.40;99.90
17152;DHT22;8691;50.828;4.700;2023-08-06T12:41:42;17.40;99.90
17152;DHT22;8691;50.828;4.700;2023-08-06T12:44:09;17.60;99.90
17152;DHT22;8691;50.828;4.700;2023-08-06T12:46:35;17.70;99.90
17152;DHT22;8691;50.828;4.700;2023-08-06T12:49:02;17.70;99.90
17152;DHT22;8691;50.828;4.700;2023-08-06T12:51:29;17.60;99.90
17152;DHT22;8691;50.828;4.700;2023-08-06T12:53:56;17.60;99.90
17152;DHT22;8691;50.828;4.700;2023-08-06T12:56:23;17.80;99.90
17152;DHT22;8691;50.828;4.700;2023-08-06T12:58:50;17.60;99.90
17152;DHT22;8691;50.828;4.700;2023-08-06T13:01:17;17.70;99.90
17152;DHT22;8691;50.828;4.700;2023-08-06T13:03:45;17.70;99.90
17152;DHT22;8691;50.828;4.700;2023-08-06T13:06:12;17.60;99.90
17152;DHT22;8691;50.828;4.700;2023-08-06T13:08:39;17.60;99.90
17152;DHT22;8691;50.828;4.700;2023-08-06T13:11:06;17.70;99.90
17152;DHT22;8691;50.828;4.700;2023-08-06T13:13:33;17.30;99.90
17152;DHT22;8691;50.828;4.700;2023-08-06T13:16:00;17.00;99.90
17152;DHT22;8691;50.828;4.700;2023-08-06T13:18:27;16.70;99.90
17152;DHT22;8691;50.828;4.700;2023-08-06T13:20:54;16.60;99.90
17152;DHT22;8691;50.828;4.700;2023-08-06T13:23:21;16.60;99.90
17152;DHT22;8691;50.828;4.700;2023-08-06T13:25:48;16.40;99.90
17152;DHT22;8691;50.828;4.700;2023-08-06T13:28:15;16.10;99.90
17152;DHT22;8691;50.828;4.700;2023-08-06T13:30:42;16.00;99.90
17152;DHT22;8691;50.828;4.700;2023-08-06T13:33:09;16.10;99.90
17152;DHT22;8691;50.828;4.700;2023-08-06T13:35:35;16.50;99.90
17152;DHT22;8691;50.828;4.700;2023-08-06T13:38:03;16.80;99.90
17152;DHT22;8691;50.828;4.700;2023-08-06T13:40:32;16.80;99.90
17152;DHT22;8691;50.828;4.700;2023-08-06T13:42:58;16.70;99.90
17152;DHT22;8691;50.828;4.700;2023-08-06T13:45:25;16.70;99.90
17152;DHT22;8691;50.828;4.700;2023-08-06T13:47:52;17.00;99.90
17152;DHT22;8691;50.828;4.700;2023-08-06T13:50:19;16.90;99.90
17152;DHT22;8691;50.828;4.700;2023-08-06T13:52:46;16.70;99.90
17152;DHT22;8691;50.828;4.700;2023-08-06T13:55:13;16.60;99.90
17152;DHT22;8691;50.828;4.700;2023-08-06T13:57:40;16.60;99.90
17152;DHT22;8691;50.828;4.700;2023-08-06T14:00:07;16.30;99.90
17152;DHT22;8691;50.828;4.700;2023-08-06T14:02:34;16.00;99.90
17152;DHT22;8691;50.828;4.700;2023-08-06T14:05:01;16.00;99.90
17152;DHT22;8691;50.828;4.700;2023-08-06T14:07:28;15.90;99.90
17152;DHT22;8691;50.828;4.700;2023-08-06T14:09:55;15.60;99.90
17152;DHT22;8691;50.828;4.700;2023-08-06T14:12:22;15.60;99.90
17152;DHT22;8691;50.828;4.700;2023-08-06T14:14:49;15.50;99.90
17152;DHT22;8691;50.828;4.700;2023-08-06T14:17:17;15.60;99.90
17152;DHT22;8691;50.828;4.700;2023-08-06T14:19:44;15.60;99.90
17152;DHT22;8691;50.828;4.700;2023-08-06T14:22:11;15.80;99.90
17152;DHT22;8691;50.828;4.700;2023-08-06T14:24:38;15.70;99.90
17152;DHT22;8691;50.828;4.700;2023-08-06T14:27:05;15.70;99.90
17152;DHT22;8691;50.828;4.700;2023-08-06T14:29:32;15.60;99.90
17152;DHT22;8691;50.828;4.700;2023-08-06T14:31:59;15.80;99.90
17152;DHT22;8691;50.828;4.700;2023-08-06T14:34:25;15.90;99.90
17152;DHT22;8691;50.828;4.700;2023-08-06T14:36:53;15.70;99.90
17152;DHT22;8691;50.828;4.700;2023-08-06T14:39:20;15.70;99.90
17152;DHT22;8691;50.828;4.700;2023-08-06T14:41:47;15.70;99.90
17152;DHT22;8691;50.828;4.700;2023-08-06T14:44:14;15.90;99.90
17152;DHT22;8691;50.828;4.700;2023-08-06T14:46:41;16.00;99.90
17152;DHT22;8691;50.828;4.700;2023-08-06T14:49:08;16.10;99.90
17152;DHT22;8691;50.828;4.700;2023-08-06T14:51:35;16.20;99.90
17152;DHT22;8691;50.828;4.700;2023-08-06T14:54:02;16.10;99.90
17152;DHT22;8691;50.828;4.700;2023-08-06T14:56:29;16.10;99.90
17152;DHT22;8691;50.828;4.700;2023-08-06T14:58:56;16.20;99.90
17152;DHT22;8691;50.828;4.700;2023-08-06T15:01:22;16.00;99.90
17152;DHT22;8691;50.828;4.700;2023-08-06T15:03:49;15.90;99.90
17152;DHT22;8691;50.828;4.700;2023-08-06T15:06:17;15.60;99.90
17152;DHT22;8691;50.828;4.700;2023-08-06T15:08:44;15.60;99.90
17152;DHT22;8691;50.828;4.700;2023-08-06T15:11:12;15.60;99.90
17152;DHT22;8691;50.828;4.700;2023-08-06T15:13:38;15.30;99.90
17152;DHT22;8691;50.828;4.700;2023-08-06T15:16:05;15.40;99.90
17152;DHT22;8691;50.828;4.700;2023-08-06T15:18:32;15.30;99.90
17152;DHT22;8691;50.828;4.700;2023-08-06T15:20:59;15.10;99.90
17152;DHT22;8691;50.828;4.700;2023-08-06T15:23:26;15.10;99.90
17152;DHT22;8691;50.828;4.700;2023-08-06T15:25:53;15.20;99.90
17152;DHT22;8691;50.828;4.700;2023-08-06T15:28:20;15.40;99.90
17152;DHT22;8691;50.828;4.700;2023-08-06T15:30:50;15.60;99.90
17152;DHT22;8691;50.828;4.700;2023-08-06T15:33:17;15.90;99.90
17152;DHT22;8691;50.828;4.700;2023-08-06T15:35:43;15.80;99.90
17152;DHT22;8691;50.828;4.700;2023-08-06T15:38:10;15.80;99.90
17152;DHT22;8691;50.828;4.700;2023-08-06T15:40:37;15.80;99.90
17152;DHT22;8691;50.828;4.700;2023-08-06T15:43:04;16.00;99.90
17152;DHT22;8691;50.828;4.700;2023-08-06T15:45:31;16.10;99.90
17152;DHT22;8691;50.828;4.700;2023-08-06T15:47:58;16.20;99.90
17152;DHT22;8691;50.828;4.700;2023-08-06T15:50:25;16.20;99.90
17152;DHT22;8691;50.828;4.700;2023-08-06T15:52:52;16.20;99.90